Startpagina
METAR-TAF:

METAR-TAF

Vliegvelden :

Reims, Frankrijk

breedte: 49-12-31N, lengte: 004-09-24E, hoogte: 95 m

Actueel weer

Dit bericht is 43 minuten geleden gemaakt, om 07:00 UTC
Wind 5 kt uit het zuidoosten
Temperatuur 1°C
Vochtigheid 93%
Druk 1007 hPa
Zicht: 3700 m
nevel

METAR: LFQA 210700Z AUTO 14005KT 3700 BR NSC 01/00 Q1007

Tijdstip: 08:43 (07:43 UTC)


TAF: ontbreekt

Waarnemingen en weersverwachtingen van meer dan 4000 vliegvelden (METAR en TAF).

De beschikbare stations zijn de gele en rode punten op de kaart.

Ga met uw muis naar het station om de naam te zien.

Klik dan om waarnemingen en weersverwachtingen te zien.

kaart wijzigen: klik op de groene knoppen met een zwart kruis om in te zoomen, op de groene knop met een streepje om uit te zoomen of op de groene pijlen voor aangrenzende kaarten.


METAR-TAF: